Airfield :
LOGIN :

Register | Disclaimer

   EN    FR    IT 

 










Legend :    VFR   Marginal VFR   IFR   Intensive IFR   Very Intensive IFR
Visi :
Ceiling :
>= 8 km
>= 3000ft
5 to 8 km
1000 to 3000 ft
1500m to 5 km
500 to 1000 ft
800 to 1500m
200 to 500 ft
< 800m
< 200 ft
Symbols :   Thunderstorms  Fog  Heavy snow  Heavy precipitations  Wind > 20 kt
SIGMETs :     Misc.  Thunderstorms  Icing  Turbulence  Mountain Waves  Volcanic Ashes







- Airport Elevation : 12 ft
- IATA code : NCE
- Download approach charts


LFMN - Nice

CURRENT METAR :
  • 211200Z 15005KT 9999 FEW036 27/21 Q1016 NOSIG

EXPIRED METARs :
  • 211130Z 10004KT 9999 FEW036 27/20 Q1016 NOSIG
  • 211100Z 10005KT 9999 FEW036 26/21 Q1016 NOSIG
  • 211030Z 13006KT 9999 FEW036 26/22 Q1016 NOSIG
  • 211006Z 13005KT 9999 FEW036 26/21 Q1016 NOSIG
  • 210930Z 09005KT 9999 FEW036 27/21 Q1016 NOSIG

TAF TAF LFMN
Valid from the 21 at 09:00 until the 22 at 15:00 UTC


210800Z 2109/2215 20010KT CAVOK
PROB40
TEMPO 2112/2117 SCT025TCU
TEMPO 2200/2209 09020KT
PROB30
TEMPO 2201/2209 BKN014
ATIS : +33 4 93 17 21 16
No reported NOTAMs for that airfield.



MET'MAP, your aeronautical weather chart ! - Copyright ORBIFLY December 2007 - Disclaimer

ORBIFLY MET'MAP TEAM :

Programming & Development : Alexandra Zaïnal
Concept & Development : Baudouin d'Aumeries
Co-Development & Prog : Marc-Olivier Méhu
Technical & hardware support : Manuel Goepfert

Contact : metmap@orbifly.com




SOURCES & CREDITS :

   NOAA